Fremont, NE

5:36 PM CST on February 14, 2016 (GMT -0600)
Behind Mack's cafe | | Change Station
CLOSE
Current Station
Personal Weather Station
Location: Fremont, NE
Elevation: 1194 ft
Nearby Weather Stations

Elev 1194 ft 41.45 °N, 96.48 °W | Updated 1 minute ago

Overcast
Overcast
35.8 °F
Feels Like 36 °F
N
0.0
Wind Variable Wind from NE
Gusts 0.0 mph

Today
High -- | Low -- °F
--% Chance of Precip.
Yesterday
High -- | Low -- °F
Precip. -- in
Pressure 29.86 in
Visibility 10.0 miles
Clouds Overcast 3200 ft
Windchill 36 °F
Dew Point 26 °F
Humidity 66%
Rainfall 0.00 in
Snow Depth Not available.
7:22 AM 5:57 PM
Waxing Crescent, 46% visible
METAR KFET 142315Z AUTO 00000KT 10SM OVC032 02/M02 A2986 RMK AO2 T00161016
Pressure 29.86 in
Visibility 10.0 miles
Clouds Overcast 3200 ft
Windchill 36 °F
Dew Point 26 °F
Humidity 66%
Rainfall 0.00 in
Snow Depth Not available.
7:22 AM 5:57 PM
Waxing Crescent, 46% visible
METAR KFET 142315Z AUTO 00000KT 10SM OVC032 02/M02 A2986 RMK AO2 T00161016

10-Day Weather Forecast

Almanac

Astronomy

Feb. 14, 2016 Rise Set
Actual Time
Civil Twilight
Nautical Twilight
Astronomical Twilight
Moon
Length of Visible Light
Length of Day
Tomorrow will be .
, % of the Moon is Illuminated

Today's Extremes

State Highs State Lows

Community

WunderPhotos

Upload Photos

1,892,925 photos uploaded!

WunderBlog® & News

Nearby

Air Quality

  Air Quality AQ Index Pollutant
Not available.

Snow Depth

Station Depth Elevation

Earthquake Activity

City Distance Mag. Time & Date
Minimum magnitude displayed is 2.5.

Coastal Water Temperatures

Place Temperature

Stations

Nearby Weather Stations

Station Location Temp. Windchill Dew Point Humidity Wind Precip. Elev Updated Type
                   

Watches & Warnings

There are currently no watches in effect.